Hauptseite
METAR-TAF:

METAR-TAF

Flughäfen :

Flugplatz Padua

Padua, Italien

Breite: 45-23-45N, Länge: 11-50-53E, Höhe: 13 m

Beobachtung

Neuester Wetterbericht von vor 15 Stunden und 17 Minuten, um 07:00 UTC
Wind 3 kt aus unterschiedlichen Richtungen
Temperatur 4°C
Luftfeuchtigkeit 100%
Luftdruck 1008 hPa
Sichtweite: 3500 m
Flacher Nebel

METAR: LIPU 090700Z VRB03KT 3500 MIFG NSC 04/04 Q1008

Zeit: 23:17 (22:17 UTC)


TAF: fehlend

Wetterbeobachtungen und Prognosen von mehr als 4000 Flughäfen (METAR und TAF Bericht).

Die verfügbaren Stationen werden durch gelbe und rote Markierungen auf der Karte dargestellt.

Führen Sie die Maus auf sie, um den Namen der Station zu sehen.

Darauf klicken, um die Beobachtung von Wetterbeobachtungen und Prognosen zu sehen.

Um die Karte zu ändern : klicken Sie auf den grünen Tasten mit einem schwarzen Kreuz Zum Vergrößern, auf den grünen Button mit einem Gedankenstrich zu verkleinern, oder auf die grünen Pfeile für benachbarte Karten.


METAR-TAF: